sensor_id;sensor_type;location;lat;lon;timestamp;P1;durP1;ratioP1;P2;durP2;ratioP2
16845;SDS011;8539;53.188;8.696;2023-01-06T00:01:28;38.20;;;20.73;;
16845;SDS011;8539;53.188;8.696;2023-01-06T00:03:55;43.08;;;20.17;;
16845;SDS011;8539;53.188;8.696;2023-01-06T00:06:23;42.80;;;21.27;;
16845;SDS011;8539;53.188;8.696;2023-01-06T00:08:57;40.63;;;19.70;;
16845;SDS011;8539;53.188;8.696;2023-01-06T00:11:25;37.60;;;19.23;;
16845;SDS011;8539;53.188;8.696;2023-01-06T00:13:51;48.50;;;21.83;;
16845;SDS011;8539;53.188;8.696;2023-01-06T00:16:19;42.60;;;20.38;;
16845;SDS011;8539;53.188;8.696;2023-01-06T00:18:45;44.55;;;20.48;;
16845;SDS011;8539;53.188;8.696;2023-01-06T00:21:12;48.40;;;24.55;;
16845;SDS011;8539;53.188;8.696;2023-01-06T00:23:39;46.50;;;20.85;;
16845;SDS011;8539;53.188;8.696;2023-01-06T00:26:06;52.13;;;23.13;;
16845;SDS011;8539;53.188;8.696;2023-01-06T00:28:33;51.30;;;21.40;;
16845;SDS011;8539;53.188;8.696;2023-01-06T00:31:10;54.33;;;23.65;;
16845;SDS011;8539;53.188;8.696;2023-01-06T00:33:38;44.05;;;23.67;;
16845;SDS011;8539;53.188;8.696;2023-01-06T00:36:04;44.40;;;23.15;;
16845;SDS011;8539;53.188;8.696;2023-01-06T00:38:31;53.30;;;23.73;;
16845;SDS011;8539;53.188;8.696;2023-01-06T00:40:57;63.20;;;27.05;;
16845;SDS011;8539;53.188;8.696;2023-01-06T00:43:25;53.42;;;24.45;;
16845;SDS011;8539;53.188;8.696;2023-01-06T00:45:53;48.45;;;25.02;;
16845;SDS011;8539;53.188;8.696;2023-01-06T00:48:19;55.25;;;25.13;;
16845;SDS011;8539;53.188;8.696;2023-01-06T00:50:45;53.88;;;25.10;;
16845;SDS011;8539;53.188;8.696;2023-01-06T00:53:11;54.75;;;26.02;;
16845;SDS011;8539;53.188;8.696;2023-01-06T00:55:37;45.47;;;24.42;;
16845;SDS011;8539;53.188;8.696;2023-01-06T00:58:03;54.97;;;27.13;;
16845;SDS011;8539;53.188;8.696;2023-01-06T01:00:29;57.25;;;29.30;;
16845;SDS011;8539;53.188;8.696;2023-01-06T01:02:56;48.90;;;25.30;;
16845;SDS011;8539;53.188;8.696;2023-01-06T01:05:23;51.15;;;25.98;;
16845;SDS011;8539;53.188;8.696;2023-01-06T01:07:50;53.53;;;25.10;;
16845;SDS011;8539;53.188;8.696;2023-01-06T01:10:16;73.00;;;26.02;;
16845;SDS011;8539;53.188;8.696;2023-01-06T01:12:44;62.17;;;26.83;;
16845;SDS011;8539;53.188;8.696;2023-01-06T01:15:11;59.13;;;26.30;;
16845;SDS011;8539;53.188;8.696;2023-01-06T01:17:38;65.05;;;25.60;;
16845;SDS011;8539;53.188;8.696;2023-01-06T01:20:06;50.35;;;26.70;;
16845;SDS011;8539;53.188;8.696;2023-01-06T01:22:34;59.47;;;26.92;;
16845;SDS011;8539;53.188;8.696;2023-01-06T01:25:01;58.25;;;27.27;;
16845;SDS011;8539;53.188;8.696;2023-01-06T01:27:28;51.65;;;26.40;;
16845;SDS011;8539;53.188;8.696;2023-01-06T01:29:55;59.92;;;27.55;;
16845;SDS011;8539;53.188;8.696;2023-01-06T01:32:21;54.92;;;26.50;;
16845;SDS011;8539;53.188;8.696;2023-01-06T01:34:49;55.92;;;26.17;;
16845;SDS011;8539;53.188;8.696;2023-01-06T01:37:18;57.50;;;26.77;;
16845;SDS011;8539;53.188;8.696;2023-01-06T01:39:45;69.15;;;29.83;;
16845;SDS011;8539;53.188;8.696;2023-01-06T01:42:16;54.17;;;26.42;;
16845;SDS011;8539;53.188;8.696;2023-01-06T01:47:20;65.68;;;27.70;;
16845;SDS011;8539;53.188;8.696;2023-01-06T01:49:51;57.15;;;27.10;;
16845;SDS011;8539;53.188;8.696;2023-01-06T01:52:20;55.58;;;28.70;;
16845;SDS011;8539;53.188;8.696;2023-01-06T01:54:48;68.00;;;28.58;;
16845;SDS011;8539;53.188;8.696;2023-01-06T01:57:22;65.82;;;27.92;;
16845;SDS011;8539;53.188;8.696;2023-01-06T01:59:59;61.30;;;29.00;;
16845;SDS011;8539;53.188;8.696;2023-01-06T02:02:28;52.75;;;26.10;;
16845;SDS011;8539;53.188;8.696;2023-01-06T02:04:57;54.17;;;26.95;;
16845;SDS011;8539;53.188;8.696;2023-01-06T02:07:25;56.00;;;27.85;;
16845;SDS011;8539;53.188;8.696;2023-01-06T02:09:55;63.10;;;29.27;;
16845;SDS011;8539;53.188;8.696;2023-01-06T02:12:34;54.92;;;27.05;;
16845;SDS011;8539;53.188;8.696;2023-01-06T02:15:01;53.05;;;27.40;;
16845;SDS011;8539;53.188;8.696;2023-01-06T02:17:38;46.92;;;24.85;;
16845;SDS011;8539;53.188;8.696;2023-01-06T02:20:28;51.40;;;26.45;;
16845;SDS011;8539;53.188;8.696;2023-01-06T02:28:45;58.88;;;27.45;;
16845;SDS011;8539;53.188;8.696;2023-01-06T02:36:56;49.60;;;28.00;;
16845;SDS011;8539;53.188;8.696;2023-01-06T02:50:41;45.67;;;25.30;;
16845;SDS011;8539;53.188;8.696;2023-01-06T02:53:19;47.10;;;25.85;;
16845;SDS011;8539;53.188;8.696;2023-01-06T02:55:46;61.33;;;26.85;;
16845;SDS011;8539;53.188;8.696;2023-01-06T02:58:21;43.40;;;24.80;;
16845;SDS011;8539;53.188;8.696;2023-01-06T03:00:59;46.88;;;25.52;;
16845;SDS011;8539;53.188;8.696;2023-01-06T03:03:27;41.47;;;22.98;;
16845;SDS011;8539;53.188;8.696;2023-01-06T03:05:58;39.33;;;22.35;;
16845;SDS011;8539;53.188;8.696;2023-01-06T03:08:31;37.42;;;22.63;;
16845;SDS011;8539;53.188;8.696;2023-01-06T03:11:00;31.25;;;21.00;;
16845;SDS011;8539;53.188;8.696;2023-01-06T03:16:05;42.60;;;21.98;;
16845;SDS011;8539;53.188;8.696;2023-01-06T03:18:32;32.40;;;19.90;;
16845;SDS011;8539;53.188;8.696;2023-01-06T03:21:00;33.92;;;20.63;;
16845;SDS011;8539;53.188;8.696;2023-01-06T03:23:30;33.30;;;19.17;;
16845;SDS011;8539;53.188;8.696;2023-01-06T03:25:57;29.23;;;19.52;;
16845;SDS011;8539;53.188;8.696;2023-01-06T03:28:23;32.75;;;17.90;;
16845;SDS011;8539;53.188;8.696;2023-01-06T03:33:38;38.05;;;19.63;;
16845;SDS011;8539;53.188;8.696;2023-01-06T03:39:23;31.70;;;18.65;;
16845;SDS011;8539;53.188;8.696;2023-01-06T03:42:02;34.17;;;17.48;;
16845;SDS011;8539;53.188;8.696;2023-01-06T03:45:09;27.25;;;17.85;;
16845;SDS011;8539;53.188;8.696;2023-01-06T03:50:37;31.73;;;17.65;;
16845;SDS011;8539;53.188;8.696;2023-01-06T03:55:50;30.08;;;17.83;;
16845;SDS011;8539;53.188;8.696;2023-01-06T03:58:24;25.33;;;17.50;;
16845;SDS011;8539;53.188;8.696;2023-01-06T04:00:51;23.63;;;15.63;;
16845;SDS011;8539;53.188;8.696;2023-01-06T04:03:18;26.15;;;16.65;;
16845;SDS011;8539;53.188;8.696;2023-01-06T04:05:48;26.48;;;17.58;;
16845;SDS011;8539;53.188;8.696;2023-01-06T04:08:14;28.27;;;16.50;;
16845;SDS011;8539;53.188;8.696;2023-01-06T04:10:40;24.42;;;15.68;;
16845;SDS011;8539;53.188;8.696;2023-01-06T04:13:06;26.85;;;16.42;;
16845;SDS011;8539;53.188;8.696;2023-01-06T04:15:32;28.33;;;17.75;;
16845;SDS011;8539;53.188;8.696;2023-01-06T04:17:58;21.80;;;16.83;;
16845;SDS011;8539;53.188;8.696;2023-01-06T04:20:26;22.90;;;15.23;;
16845;SDS011;8539;53.188;8.696;2023-01-06T04:22:54;26.55;;;15.63;;
16845;SDS011;8539;53.188;8.696;2023-01-06T04:25:21;24.73;;;15.32;;
16845;SDS011;8539;53.188;8.696;2023-01-06T04:27:48;27.90;;;14.98;;
16845;SDS011;8539;53.188;8.696;2023-01-06T04:30:14;27.58;;;16.35;;
16845;SDS011;8539;53.188;8.696;2023-01-06T04:32:40;20.75;;;14.38;;
16845;SDS011;8539;53.188;8.696;2023-01-06T04:35:06;23.02;;;15.25;;
16845;SDS011;8539;53.188;8.696;2023-01-06T04:37:33;16.92;;;12.90;;
16845;SDS011;8539;53.188;8.696;2023-01-06T04:40:00;21.40;;;12.48;;
16845;SDS011;8539;53.188;8.696;2023-01-06T04:42:26;20.60;;;13.20;;
16845;SDS011;8539;53.188;8.696;2023-01-06T04:44:52;20.95;;;13.73;;
16845;SDS011;8539;53.188;8.696;2023-01-06T04:47:18;17.15;;;13.30;;
16845;SDS011;8539;53.188;8.696;2023-01-06T04:49:44;17.25;;;13.05;;
16845;SDS011;8539;53.188;8.696;2023-01-06T04:52:10;20.45;;;13.13;;
16845;SDS011;8539;53.188;8.696;2023-01-06T04:54:36;17.55;;;14.00;;
16845;SDS011;8539;53.188;8.696;2023-01-06T04:57:02;18.17;;;13.75;;
16845;SDS011;8539;53.188;8.696;2023-01-06T04:59:28;18.20;;;14.05;;
16845;SDS011;8539;53.188;8.696;2023-01-06T05:01:54;19.30;;;13.52;;
16845;SDS011;8539;53.188;8.696;2023-01-06T05:04:20;19.75;;;15.68;;
16845;SDS011;8539;53.188;8.696;2023-01-06T05:06:46;20.13;;;13.27;;
16845;SDS011;8539;53.188;8.696;2023-01-06T05:09:12;27.42;;;16.25;;
16845;SDS011;8539;53.188;8.696;2023-01-06T05:11:38;25.58;;;15.30;;
16845;SDS011;8539;53.188;8.696;2023-01-06T05:14:05;20.45;;;15.68;;
16845;SDS011;8539;53.188;8.696;2023-01-06T05:16:32;25.90;;;15.38;;
16845;SDS011;8539;53.188;8.696;2023-01-06T05:18:59;21.42;;;15.40;;
16845;SDS011;8539;53.188;8.696;2023-01-06T05:21:26;18.55;;;15.40;;
16845;SDS011;8539;53.188;8.696;2023-01-06T05:23:53;23.00;;;16.00;;
16845;SDS011;8539;53.188;8.696;2023-01-06T05:26:21;22.98;;;17.65;;
16845;SDS011;8539;53.188;8.696;2023-01-06T05:28:48;22.02;;;15.35;;
16845;SDS011;8539;53.188;8.696;2023-01-06T05:31:15;23.25;;;16.85;;
16845;SDS011;8539;53.188;8.696;2023-01-06T05:33:41;21.73;;;17.60;;
16845;SDS011;8539;53.188;8.696;2023-01-06T05:36:08;23.98;;;16.02;;
16845;SDS011;8539;53.188;8.696;2023-01-06T05:38:40;20.52;;;15.80;;
16845;SDS011;8539;53.188;8.696;2023-01-06T05:41:06;22.20;;;16.77;;
16845;SDS011;8539;53.188;8.696;2023-01-06T05:43:33;20.05;;;16.08;;
16845;SDS011;8539;53.188;8.696;2023-01-06T05:46:04;26.55;;;16.85;;
16845;SDS011;8539;53.188;8.696;2023-01-06T05:48:31;22.95;;;15.13;;
16845;SDS011;8539;53.188;8.696;2023-01-06T05:51:01;22.45;;;14.73;;
16845;SDS011;8539;53.188;8.696;2023-01-06T05:53:29;20.10;;;15.10;;
16845;SDS011;8539;53.188;8.696;2023-01-06T05:56:00;21.27;;;14.05;;
16845;SDS011;8539;53.188;8.696;2023-01-06T05:58:27;17.73;;;13.68;;
16845;SDS011;8539;53.188;8.696;2023-01-06T06:00:53;19.27;;;13.63;;
16845;SDS011;8539;53.188;8.696;2023-01-06T06:03:20;16.33;;;12.30;;
16845;SDS011;8539;53.188;8.696;2023-01-06T06:05:46;16.30;;;12.82;;
16845;SDS011;8539;53.188;8.696;2023-01-06T06:08:12;17.15;;;12.35;;
16845;SDS011;8539;53.188;8.696;2023-01-06T06:10:38;19.80;;;13.48;;
16845;SDS011;8539;53.188;8.696;2023-01-06T06:13:04;22.50;;;12.23;;
16845;SDS011;8539;53.188;8.696;2023-01-06T06:15:31;16.90;;;12.77;;
16845;SDS011;8539;53.188;8.696;2023-01-06T06:17:57;20.27;;;11.95;;
16845;SDS011;8539;53.188;8.696;2023-01-06T06:20:23;15.57;;;11.55;;
16845;SDS011;8539;53.188;8.696;2023-01-06T06:22:49;15.70;;;11.93;;
16845;SDS011;8539;53.188;8.696;2023-01-06T06:25:15;15.63;;;11.63;;
16845;SDS011;8539;53.188;8.696;2023-01-06T06:27:41;15.63;;;9.90;;
16845;SDS011;8539;53.188;8.696;2023-01-06T06:30:07;13.95;;;10.75;;
16845;SDS011;8539;53.188;8.696;2023-01-06T06:32:33;14.95;;;10.25;;
16845;SDS011;8539;53.188;8.696;2023-01-06T06:34:59;14.05;;;11.00;;
16845;SDS011;8539;53.188;8.696;2023-01-06T06:37:25;12.20;;;9.70;;
16845;SDS011;8539;53.188;8.696;2023-01-06T06:39:51;13.85;;;9.40;;
16845;SDS011;8539;53.188;8.696;2023-01-06T06:42:17;14.93;;;9.98;;
16845;SDS011;8539;53.188;8.696;2023-01-06T06:44:43;13.65;;;8.98;;
16845;SDS011;8539;53.188;8.696;2023-01-06T06:47:09;14.40;;;9.07;;
16845;SDS011;8539;53.188;8.696;2023-01-06T06:49:35;13.43;;;9.82;;
16845;SDS011;8539;53.188;8.696;2023-01-06T06:52:01;14.20;;;8.77;;
16845;SDS011;8539;53.188;8.696;2023-01-06T06:54:28;12.15;;;7.82;;
16845;SDS011;8539;53.188;8.696;2023-01-06T06:56:54;14.32;;;8.80;;
16845;SDS011;8539;53.188;8.696;2023-01-06T06:59:21;10.60;;;7.68;;
16845;SDS011;8539;53.188;8.696;2023-01-06T07:01:47;13.55;;;7.30;;
16845;SDS011;8539;53.188;8.696;2023-01-06T07:04:13;7.65;;;6.68;;
16845;SDS011;8539;53.188;8.696;2023-01-06T07:06:39;11.63;;;6.60;;
16845;SDS011;8539;53.188;8.696;2023-01-06T07:09:05;13.93;;;6.57;;
16845;SDS011;8539;53.188;8.696;2023-01-06T07:11:31;10.73;;;6.13;;
16845;SDS011;8539;53.188;8.696;2023-01-06T07:13:57;8.95;;;6.10;;
16845;SDS011;8539;53.188;8.696;2023-01-06T07:16:23;7.43;;;4.85;;
16845;SDS011;8539;53.188;8.696;2023-01-06T07:18:51;6.68;;;5.78;;
16845;SDS011;8539;53.188;8.696;2023-01-06T07:21:18;8.43;;;5.28;;
16845;SDS011;8539;53.188;8.696;2023-01-06T07:23:44;7.53;;;4.75;;
16845;SDS011;8539;53.188;8.696;2023-01-06T07:26:10;6.60;;;4.90;;
16845;SDS011;8539;53.188;8.696;2023-01-06T07:28:36;9.50;;;4.38;;
16845;SDS011;8539;53.188;8.696;2023-01-06T07:31:02;6.78;;;4.28;;
16845;SDS011;8539;53.188;8.696;2023-01-06T07:33:28;6.78;;;4.35;;
16845;SDS011;8539;53.188;8.696;2023-01-06T07:35:55;9.15;;;4.30;;
16845;SDS011;8539;53.188;8.696;2023-01-06T07:38:22;6.22;;;3.50;;
16845;SDS011;8539;53.188;8.696;2023-01-06T07:40:48;8.52;;;4.32;;
16845;SDS011;8539;53.188;8.696;2023-01-06T07:43:14;4.50;;;3.58;;
16845;SDS011;8539;53.188;8.696;2023-01-06T07:45:41;6.13;;;3.55;;
16845;SDS011;8539;53.188;8.696;2023-01-06T07:48:07;6.20;;;3.33;;
16845;SDS011;8539;53.188;8.696;2023-01-06T07:50:34;5.40;;;3.20;;
16845;SDS011;8539;53.188;8.696;2023-01-06T07:53:00;10.60;;;3.30;;
16845;SDS011;8539;53.188;8.696;2023-01-06T07:55:27;7.50;;;3.15;;
16845;SDS011;8539;53.188;8.696;2023-01-06T07:57:54;3.72;;;3.05;;
16845;SDS011;8539;53.188;8.696;2023-01-06T08:00:21;4.53;;;3.13;;
16845;SDS011;8539;53.188;8.696;2023-01-06T08:02:47;3.42;;;2.85;;
16845;SDS011;8539;53.188;8.696;2023-01-06T08:05:13;5.53;;;3.28;;
16845;SDS011;8539;53.188;8.696;2023-01-06T08:07:40;5.55;;;3.33;;
16845;SDS011;8539;53.188;8.696;2023-01-06T08:10:06;6.22;;;2.35;;
16845;SDS011;8539;53.188;8.696;2023-01-06T08:12:32;5.13;;;2.65;;
16845;SDS011;8539;53.188;8.696;2023-01-06T08:14:58;4.63;;;3.17;;
16845;SDS011;8539;53.188;8.696;2023-01-06T08:17:24;3.40;;;2.30;;
16845;SDS011;8539;53.188;8.696;2023-01-06T08:19:50;3.85;;;3.05;;
16845;SDS011;8539;53.188;8.696;2023-01-06T08:22:16;6.75;;;3.15;;
16845;SDS011;8539;53.188;8.696;2023-01-06T08:24:43;6.50;;;2.50;;
16845;SDS011;8539;53.188;8.696;2023-01-06T08:27:09;3.60;;;2.60;;
16845;SDS011;8539;53.188;8.696;2023-01-06T08:29:35;4.25;;;2.90;;
16845;SDS011;8539;53.188;8.696;2023-01-06T08:32:01;6.40;;;2.42;;
16845;SDS011;8539;53.188;8.696;2023-01-06T08:34:27;4.47;;;2.33;;
16845;SDS011;8539;53.188;8.696;2023-01-06T08:36:53;5.65;;;2.50;;
16845;SDS011;8539;53.188;8.696;2023-01-06T08:39:19;5.47;;;2.78;;
16845;SDS011;8539;53.188;8.696;2023-01-06T08:41:45;5.75;;;2.83;;
16845;SDS011;8539;53.188;8.696;2023-01-06T08:44:16;7.95;;;2.90;;
16845;SDS011;8539;53.188;8.696;2023-01-06T08:46:42;3.65;;;2.58;;
16845;SDS011;8539;53.188;8.696;2023-01-06T08:49:08;5.38;;;3.60;;
16845;SDS011;8539;53.188;8.696;2023-01-06T08:51:35;7.40;;;3.40;;
16845;SDS011;8539;53.188;8.696;2023-01-06T08:54:01;6.18;;;2.97;;
16845;SDS011;8539;53.188;8.696;2023-01-06T08:56:28;4.55;;;2.70;;
16845;SDS011;8539;53.188;8.696;2023-01-06T08:58:57;3.78;;;3.03;;
16845;SDS011;8539;53.188;8.696;2023-01-06T09:01:29;4.85;;;2.70;;
16845;SDS011;8539;53.188;8.696;2023-01-06T09:04:01;3.50;;;2.78;;
16845;SDS011;8539;53.188;8.696;2023-01-06T09:06:29;3.95;;;3.10;;
16845;SDS011;8539;53.188;8.696;2023-01-06T09:08:56;7.68;;;3.42;;
16845;SDS011;8539;53.188;8.696;2023-01-06T09:11:23;3.95;;;3.30;;
16845;SDS011;8539;53.188;8.696;2023-01-06T09:13:49;5.07;;;3.40;;
16845;SDS011;8539;53.188;8.696;2023-01-06T09:16:16;5.00;;;3.72;;
16845;SDS011;8539;53.188;8.696;2023-01-06T09:18:43;5.30;;;4.35;;
16845;SDS011;8539;53.188;8.696;2023-01-06T09:21:15;4.63;;;4.05;;
16845;SDS011;8539;53.188;8.696;2023-01-06T09:23:42;5.50;;;4.45;;
16845;SDS011;8539;53.188;8.696;2023-01-06T09:26:08;3.78;;;3.40;;
16845;SDS011;8539;53.188;8.696;2023-01-06T09:28:35;5.88;;;3.75;;
16845;SDS011;8539;53.188;8.696;2023-01-06T09:31:01;4.03;;;3.63;;
16845;SDS011;8539;53.188;8.696;2023-01-06T09:33:27;6.32;;;4.45;;
16845;SDS011;8539;53.188;8.696;2023-01-06T09:35:53;3.88;;;3.47;;
16845;SDS011;8539;53.188;8.696;2023-01-06T09:38:19;5.47;;;3.78;;
16845;SDS011;8539;53.188;8.696;2023-01-06T09:43:47;3.88;;;3.20;;
16845;SDS011;8539;53.188;8.696;2023-01-06T09:46:20;5.18;;;3.83;;
16845;SDS011;8539;53.188;8.696;2023-01-06T09:49:04;3.08;;;2.83;;
16845;SDS011;8539;53.188;8.696;2023-01-06T09:51:33;6.28;;;3.03;;
16845;SDS011;8539;53.188;8.696;2023-01-06T09:54:06;6.20;;;3.70;;
16845;SDS011;8539;53.188;8.696;2023-01-06T09:56:40;3.33;;;2.90;;
16845;SDS011;8539;53.188;8.696;2023-01-06T09:59:11;4.10;;;3.50;;
16845;SDS011;8539;53.188;8.696;2023-01-06T10:01:52;3.72;;;2.80;;
16845;SDS011;8539;53.188;8.696;2023-01-06T10:04:27;6.25;;;3.40;;
16845;SDS011;8539;53.188;8.696;2023-01-06T10:18:20;2.13;;;1.92;;
16845;SDS011;8539;53.188;8.696;2023-01-06T10:26:11;3.67;;;2.20;;
16845;SDS011;8539;53.188;8.696;2023-01-06T10:28:45;2.03;;;1.52;;
16845;SDS011;8539;53.188;8.696;2023-01-06T10:31:18;3.78;;;2.03;;
16845;SDS011;8539;53.188;8.696;2023-01-06T10:33:49;1.63;;;1.40;;
16845;SDS011;8539;53.188;8.696;2023-01-06T10:36:19;2.65;;;1.52;;
16845;SDS011;8539;53.188;8.696;2023-01-06T10:38:54;1.88;;;1.30;;
16845;SDS011;8539;53.188;8.696;2023-01-06T10:41:38;1.40;;;1.10;;
16845;SDS011;8539;53.188;8.696;2023-01-06T10:44:06;1.48;;;1.20;;
16845;SDS011;8539;53.188;8.696;2023-01-06T10:46:37;1.85;;;1.23;;
16845;SDS011;8539;53.188;8.696;2023-01-06T10:49:04;2.15;;;1.30;;
16845;SDS011;8539;53.188;8.696;2023-01-06T10:51:37;1.25;;;0.85;;
16845;SDS011;8539;53.188;8.696;2023-01-06T10:54:09;4.75;;;0.93;;
16845;SDS011;8539;53.188;8.696;2023-01-06T10:59:07;3.03;;;0.80;;
16845;SDS011;8539;53.188;8.696;2023-01-06T11:01:34;1.67;;;1.05;;
16845;SDS011;8539;53.188;8.696;2023-01-06T11:04:03;2.53;;;1.20;;
16845;SDS011;8539;53.188;8.696;2023-01-06T11:06:57;4.40;;;1.05;;
16845;SDS011;8539;53.188;8.696;2023-01-06T11:12:19;5.47;;;0.90;;
16845;SDS011;8539;53.188;8.696;2023-01-06T11:14:57;3.03;;;1.17;;
16845;SDS011;8539;53.188;8.696;2023-01-06T11:17:26;1.80;;;1.00;;
16845;SDS011;8539;53.188;8.696;2023-01-06T11:22:48;13.90;;;2.30;;
16845;SDS011;8539;53.188;8.696;2023-01-06T11:27:44;1.88;;;0.98;;
16845;SDS011;8539;53.188;8.696;2023-01-06T11:30:24;5.10;;;1.02;;
16845;SDS011;8539;53.188;8.696;2023-01-06T11:32:51;4.13;;;1.40;;
16845;SDS011;8539;53.188;8.696;2023-01-06T11:35:18;6.32;;;1.30;;
16845;SDS011;8539;53.188;8.696;2023-01-06T11:37:46;2.55;;;1.02;;
16845;SDS011;8539;53.188;8.696;2023-01-06T11:40:31;5.00;;;1.15;;
16845;SDS011;8539;53.188;8.696;2023-01-06T11:42:59;4.47;;;0.80;;
16845;SDS011;8539;53.188;8.696;2023-01-06T11:45:38;4.50;;;1.02;;
16845;SDS011;8539;53.188;8.696;2023-01-06T11:50:55;3.35;;;1.08;;
16845;SDS011;8539;53.188;8.696;2023-01-06T11:53:23;4.35;;;1.45;;
16845;SDS011;8539;53.188;8.696;2023-01-06T11:55:59;6.53;;;1.60;;
16845;SDS011;8539;53.188;8.696;2023-01-06T11:59:12;4.30;;;0.80;;
16845;SDS011;8539;53.188;8.696;2023-01-06T12:01:35;2.67;;;0.93;;
16845;SDS011;8539;53.188;8.696;2023-01-06T12:06:40;7.90;;;1.80;;
16845;SDS011;8539;53.188;8.696;2023-01-06T12:09:18;3.88;;;1.17;;
16845;SDS011;8539;53.188;8.696;2023-01-06T12:11:48;3.25;;;0.95;;
16845;SDS011;8539;53.188;8.696;2023-01-06T12:14:23;7.15;;;1.00;;
16845;SDS011;8539;53.188;8.696;2023-01-06T12:19:35;2.47;;;1.13;;
16845;SDS011;8539;53.188;8.696;2023-01-06T12:22:20;7.03;;;1.38;;
16845;SDS011;8539;53.188;8.696;2023-01-06T12:24:53;10.05;;;1.65;;
16845;SDS011;8539;53.188;8.696;2023-01-06T12:27:26;6.30;;;1.13;;
16845;SDS011;8539;53.188;8.696;2023-01-06T12:29:59;5.03;;;1.00;;
16845;SDS011;8539;53.188;8.696;2023-01-06T12:32:32;6.10;;;1.25;;
16845;SDS011;8539;53.188;8.696;2023-01-06T12:35:02;2.60;;;0.93;;
16845;SDS011;8539;53.188;8.696;2023-01-06T12:37:34;5.95;;;1.33;;
16845;SDS011;8539;53.188;8.696;2023-01-06T12:40:49;5.25;;;1.13;;
16845;SDS011;8539;53.188;8.696;2023-01-06T12:43:08;3.45;;;1.83;;
16845;SDS011;8539;53.188;8.696;2023-01-06T12:48:32;6.70;;;1.60;;
16845;SDS011;8539;53.188;8.696;2023-01-06T12:51:22;5.75;;;1.38;;
16845;SDS011;8539;53.188;8.696;2023-01-06T12:53:57;4.57;;;1.13;;
16845;SDS011;8539;53.188;8.696;2023-01-06T13:05:03;4.32;;;1.30;;
16845;SDS011;8539;53.188;8.696;2023-01-06T13:10:41;12.13;;;3.53;;
16845;SDS011;8539;53.188;8.696;2023-01-06T13:15:48;3.42;;;1.50;;
16845;SDS011;8539;53.188;8.696;2023-01-06T13:18:18;3.25;;;0.93;;
16845;SDS011;8539;53.188;8.696;2023-01-06T13:21:00;6.18;;;1.27;;
16845;SDS011;8539;53.188;8.696;2023-01-06T13:29:14;3.07;;;1.23;;
16845;SDS011;8539;53.188;8.696;2023-01-06T13:35:28;3.22;;;1.33;;
16845;SDS011;8539;53.188;8.696;2023-01-06T13:40:56;6.68;;;1.80;;
16845;SDS011;8539;53.188;8.696;2023-01-06T13:43:28;6.68;;;2.17;;
16845;SDS011;8539;53.188;8.696;2023-01-06T13:46:06;7.38;;;1.55;;
16845;SDS011;8539;53.188;8.696;2023-01-06T13:48:38;6.05;;;1.90;;
16845;SDS011;8539;53.188;8.696;2023-01-06T13:51:09;6.38;;;1.58;;
16845;SDS011;8539;53.188;8.696;2023-01-06T13:53:40;6.82;;;1.80;;
16845;SDS011;8539;53.188;8.696;2023-01-06T13:58:43;4.97;;;1.58;;
16845;SDS011;8539;53.188;8.696;2023-01-06T14:01:11;8.75;;;1.67;;
16845;SDS011;8539;53.188;8.696;2023-01-06T14:03:43;6.20;;;1.43;;
16845;SDS011;8539;53.188;8.696;2023-01-06T14:06:12;4.60;;;1.33;;
16845;SDS011;8539;53.188;8.696;2023-01-06T14:08:57;13.60;;;3.47;;
16845;SDS011;8539;53.188;8.696;2023-01-06T14:11:26;6.20;;;2.00;;
16845;SDS011;8539;53.188;8.696;2023-01-06T14:13:58;8.57;;;2.85;;
16845;SDS011;8539;53.188;8.696;2023-01-06T14:16:45;7.07;;;2.33;;
16845;SDS011;8539;53.188;8.696;2023-01-06T14:22:17;3.40;;;1.50;;
16845;SDS011;8539;53.188;8.696;2023-01-06T14:24:49;8.88;;;1.88;;
16845;SDS011;8539;53.188;8.696;2023-01-06T14:28:03;16.42;;;2.55;;
16845;SDS011;8539;53.188;8.696;2023-01-06T14:35:38;10.32;;;1.70;;
16845;SDS011;8539;53.188;8.696;2023-01-06T14:38:14;6.55;;;2.00;;
16845;SDS011;8539;53.188;8.696;2023-01-06T14:40:52;12.30;;;2.60;;
16845;SDS011;8539;53.188;8.696;2023-01-06T14:49:20;3.55;;;1.48;;
16845;SDS011;8539;53.188;8.696;2023-01-06T14:51:51;5.22;;;2.05;;
16845;SDS011;8539;53.188;8.696;2023-01-06T14:57:00;5.18;;;2.30;;
16845;SDS011;8539;53.188;8.696;2023-01-06T14:59:28;9.95;;;2.22;;
16845;SDS011;8539;53.188;8.696;2023-01-06T15:02:09;9.70;;;2.45;;
16845;SDS011;8539;53.188;8.696;2023-01-06T15:04:40;5.45;;;2.70;;
16845;SDS011;8539;53.188;8.696;2023-01-06T15:07:18;7.32;;;1.85;;
16845;SDS011;8539;53.188;8.696;2023-01-06T15:09:47;4.70;;;2.42;;
16845;SDS011;8539;53.188;8.696;2023-01-06T15:12:28;10.30;;;2.63;;
16845;SDS011;8539;53.188;8.696;2023-01-06T15:17:47;12.07;;;3.65;;
16845;SDS011;8539;53.188;8.696;2023-01-06T15:20:14;8.35;;;2.30;;
16845;SDS011;8539;53.188;8.696;2023-01-06T15:22:40;16.88;;;2.53;;
16845;SDS011;8539;53.188;8.696;2023-01-06T15:25:19;9.02;;;3.25;;
16845;SDS011;8539;53.188;8.696;2023-01-06T15:27:48;9.35;;;3.85;;
16845;SDS011;8539;53.188;8.696;2023-01-06T15:30:18;11.27;;;2.65;;
16845;SDS011;8539;53.188;8.696;2023-01-06T15:32:45;9.45;;;2.45;;
16845;SDS011;8539;53.188;8.696;2023-01-06T15:35:13;14.27;;;2.85;;
16845;SDS011;8539;53.188;8.696;2023-01-06T15:37:44;25.05;;;5.60;;
16845;SDS011;8539;53.188;8.696;2023-01-06T15:40:18;9.63;;;2.63;;
16845;SDS011;8539;53.188;8.696;2023-01-06T15:42:47;10.13;;;2.40;;
16845;SDS011;8539;53.188;8.696;2023-01-06T15:45:23;7.53;;;2.40;;
16845;SDS011;8539;53.188;8.696;2023-01-06T15:47:51;6.55;;;2.47;;
16845;SDS011;8539;53.188;8.696;2023-01-06T15:50:22;7.68;;;2.22;;
16845;SDS011;8539;53.188;8.696;2023-01-06T15:53:00;9.43;;;2.40;;
16845;SDS011;8539;53.188;8.696;2023-01-06T15:55:29;16.77;;;3.35;;
16845;SDS011;8539;53.188;8.696;2023-01-06T15:57:58;8.95;;;1.98;;
16845;SDS011;8539;53.188;8.696;2023-01-06T16:00:26;6.72;;;2.05;;
16845;SDS011;8539;53.188;8.696;2023-01-06T16:02:55;7.75;;;1.95;;
16845;SDS011;8539;53.188;8.696;2023-01-06T16:08:27;6.93;;;2.35;;
16845;SDS011;8539;53.188;8.696;2023-01-06T16:14:03;8.13;;;2.83;;
16845;SDS011;8539;53.188;8.696;2023-01-06T16:16:31;10.07;;;2.53;;
16845;SDS011;8539;53.188;8.696;2023-01-06T16:19:09;15.45;;;2.30;;
16845;SDS011;8539;53.188;8.696;2023-01-06T16:21:40;7.55;;;2.55;;
16845;SDS011;8539;53.188;8.696;2023-01-06T16:24:24;9.55;;;2.03;;
16845;SDS011;8539;53.188;8.696;2023-01-06T16:27:03;14.07;;;3.13;;
16845;SDS011;8539;53.188;8.696;2023-01-06T16:29:35;8.18;;;2.20;;
16845;SDS011;8539;53.188;8.696;2023-01-06T16:34:54;8.55;;;2.08;;
16845;SDS011;8539;53.188;8.696;2023-01-06T16:37:25;11.50;;;2.40;;
16845;SDS011;8539;53.188;8.696;2023-01-06T16:40:00;5.40;;;1.95;;
16845;SDS011;8539;53.188;8.696;2023-01-06T16:42:30;12.52;;;2.60;;
16845;SDS011;8539;53.188;8.696;2023-01-06T16:45:23;8.50;;;2.13;;
16845;SDS011;8539;53.188;8.696;2023-01-06T16:47:58;13.38;;;2.42;;
16845;SDS011;8539;53.188;8.696;2023-01-06T16:53:02;8.88;;;2.83;;
16845;SDS011;8539;53.188;8.696;2023-01-06T16:55:33;8.98;;;2.65;;
16845;SDS011;8539;53.188;8.696;2023-01-06T16:58:00;7.43;;;3.83;;
16845;SDS011;8539;53.188;8.696;2023-01-06T17:00:30;11.23;;;2.75;;
16845;SDS011;8539;53.188;8.696;2023-01-06T17:03:05;7.40;;;2.25;;
16845;SDS011;8539;53.188;8.696;2023-01-06T17:05:37;5.13;;;2.05;;
16845;SDS011;8539;53.188;8.696;2023-01-06T17:08:04;7.45;;;1.83;;
16845;SDS011;8539;53.188;8.696;2023-01-06T17:10:36;15.70;;;2.40;;
16845;SDS011;8539;53.188;8.696;2023-01-06T17:13:03;4.68;;;1.40;;
16845;SDS011;8539;53.188;8.696;2023-01-06T17:15:56;9.50;;;2.42;;
16845;SDS011;8539;53.188;8.696;2023-01-06T17:18:28;8.68;;;1.88;;
16845;SDS011;8539;53.188;8.696;2023-01-06T17:21:10;5.57;;;1.77;;
16845;SDS011;8539;53.188;8.696;2023-01-06T17:23:49;8.27;;;1.50;;
16845;SDS011;8539;53.188;8.696;2023-01-06T17:26:37;7.00;;;2.65;;